Date,TemperatureHighF,TemperatureAvgF,TemperatureLowF,DewpointHighF,DewpointAvgF,DewpointLowF,HumidityHigh,HumidityAvg,HumidityLow,PressureMaxIn,PressureMinIn,WindSpeedMaxMPH,WindSpeedAvgMPH,GustSpeedMaxMPH,PrecipitationSumIn
2012-1-1,67.9,53.0,41.6,58.5,47.6,37.4,92,82,57,30.15,29.95,4,1,4,0.01
2012-1-2,60.7,50.6,40.5,57.2,37.5,23.6,89,62,39,30.06,29.91,4,1,4,0.01
2012-1-3,40.9,35.3,29.9,23.6,15.6,12.5,52,44,38,30.31,29.96,6,2,6,0.00
2012-1-4,50.8,37.6,25.6,30.9,22.7,14.4,70,55,39,30.38,30.15,5,1,5,0.00
2012-1-5,60.5,48.0,40.5,41.0,32.6,23.8,73,56,45,30.15,29.99,5,1,5,0.00
2012-1-6,68.4,54.5,38.5,49.8,43.6,32.3,86,68,45,30.12,30.01,5,1,5,0.00
2012-1-7,72.4,57.9,45.7,57.3,50.7,40.9,87,78,57,30.08,29.97,5,1,5,0.00
2012-1-8,73.1,60.3,50.9,61.0,53.7,46.8,91,79,66,30.18,30.06,2,0,2,0.00
2012-1-9,76.0,62.7,53.1,61.8,55.5,49.0,91,78,55,30.15,30.01,5,1,5,0.01
2012-1-10,72.4,62.0,54.9,61.7,55.9,50.8,90,81,64,30.03,29.93,5,1,5,0.00
2012-1-11,66.6,62.7,56.9,63.0,59.6,51.8,92,89,83,29.90,29.54,7,2,7,0.08
2012-1-12,63.5,56.5,47.5,57.5,50.2,43.1,86,80,66,29.78,29.62,13,2,13,0.00
2012-1-13,61.9,46.3,37.1,54.3,29.8,24.5,76,53,39,30.09,29.67,8,1,8,0.00
2012-1-14,53.6,43.0,33.7,28.5,25.3,21.2,63,50,33,30.24,30.09,4,1,4,0.00
2012-1-15,56.9,47.8,39.2,35.6,31.4,27.6,64,53,40,30.46,30.13,5,1,5,0.00
2012-1-16,59.0,50.5,38.5,44.8,40.0,30.0,78,67,54,30.53,30.30,5,1,5,0.00
2012-1-17,67.9,59.3,50.9,56.8,52.5,44.6,87,79,67,30.31,29.99,6,1,6,0.00
2012-1-18,65.2,58.3,46.6,59.1,53.3,40.1,91,83,70,29.99,29.87,5,1,5,0.07
2012-1-19,58.3,47.8,39.1,49.0,41.0,33.5,85,77,68,30.15,29.97,5,1,5,0.00
2012-1-20,66.2,55.0,41.9,57.7,47.6,37.7,93,77,50,30.13,30.03,5,1,5,0.00
2012-1-21,65.2,61.3,57.2,59.1,56.5,54.2,90,85,77,30.04,29.89,8,2,8,0.29
2012-1-22,57.2,51.7,47.5,54.4,48.9,44.5,93,90,88,30.22,29.98,8,2,8,0.01
2012-1-23,64.3,55.8,47.2,61.3,53.7,44.7,95,92,89,30.18,29.98,5,1,5,0.00
2012-1-24,69.5,62.5,54.0,64.7,59.5,50.9,94,90,84,30.15,29.99,4,1,4,0.00
2012-1-25,65.9,56.3,46.4,58.3,51.8,44.0,94,85,72,30.23,30.09,8,2,8,0.00
2012-1-26,72.7,63.1,57.8,67.5,59.9,54.5,94,90,80,30.10,29.81,3,1,3,0.00
2012-1-27,68.4,62.9,49.7,63.0,55.9,43.7,92,79,56,29.99,29.67,8,2,8,0.06
2012-1-28,67.7,53.4,42.1,49.4,42.9,37.9,88,69,45,30.11,29.97,5,1,5,0.00
2012-1-29,61.7,50.6,38.9,41.9,35.5,28.4,77,58,30,30.32,30.11,6,1,6,0.00
2012-1-30,65.0,46.4,34.7,38.3,33.2,27.8,78,63,26,30.41,30.28,3,0,3,0.00
2012-1-31,71.3,51.6,36.9,51.8,40.1,31.7,90,67,34,30.39,30.26,3,0,3,0.00
2012-2-1,73.6,59.4,44.8,60.3,50.8,39.9,92,74,57,30.27,30.07,4,1,4,0.00
2012-2-2,76.3,66.0,54.9,60.9,56.0,46.5,83,71,51,30.19,29.99,5,1,5,0.00
2012-2-3,62.6,56.9,52.6,52.1,46.4,38.3,80,68,56,30.36,30.18,11,3,11,0.00
2012-2-4,70.9,63.0,56.9,61.4,55.9,50.4,86,78,68,30.28,30.01,4,1,5,0.00
2012-2-5,78.7,66.1,55.3,65.5,59.2,49.8,90,79,60,30.08,29.88,10,2,10,0.00
2012-2-6,56.5,53.1,49.9,49.7,46.8,43.5,85,79,74,30.16,30.05,9,2,9,0.00
2012-2-7,51.5,49.9,45.7,45.7,43.5,40.6,83,79,74,30.10,30.05,2,0,2,0.00
2012-2-8,65.7,51.9,40.1,48.7,42.1,36.5,91,71,44,30.09,29.97,4,0,5,0.00
2012-2-9,56.2,50.0,44.5,42.9,38.8,34.9,76,66,51,30.23,30.08,8,2,8,0.00
2012-2-10,61.4,55.7,51.1,55.1,48.9,42.8,86,78,69,30.15,29.83,7,1,7,0.05
2012-2-11,58.0,50.4,33.1,49.0,36.3,10.8,85,61,35,30.09,29.70,8,2,8,0.00
2012-2-12,46.6,35.8,27.2,18.7,14.4,8.8,55,42,31,30.26,30.07,7,1,7,0.00
2012-2-13,55.3,40.8,27.0,32.5,25.5,16.9,72,55,37,30.26,30.08,5,1,5,0.00
2012-2-14,57.6,50.0,37.6,51.8,42.6,29.4,86,76,62,30.11,29.98,3,0,3,0.02
2012-2-15,68.0,57.9,52.4,56.4,51.8,47.5,89,80,65,30.18,30.02,6,1,6,0.00
2012-2-16,70.7,62.2,52.4,66.2,58.1,48.0,92,86,81,30.16,29.93,4,1,4,0.00
2012-2-17,64.8,60.1,51.3,58.7,54.0,45.8,89,80,64,30.05,29.93,6,1,6,0.00
2012-2-18,66.6,56.7,46.4,56.0,50.2,43.1,91,80,57,30.01,29.80,8,2,8,0.82
2012-2-19,65.0,58.8,45.9,63.2,56.6,42.4,94,92,87,29.83,29.49,6,2,6,1.48
2012-2-20,54.7,46.1,39.6,42.4,39.4,36.0,89,78,55,30.25,29.79,8,1,8,0.00
2012-2-21,61.9,53.0,41.6,56.7,48.2,37.3,87,84,75,30.25,30.01,7,1,7,0.00
2012-2-22,69.7,60.4,50.9,61.3,54.7,47.6,93,82,61,30.02,29.66,6,2,6,0.00
2012-2-23,72.4,65.6,61.6,65.7,61.6,58.7,93,87,76,29.74,29.65,8,3,8,0.00
2012-2-24,70.6,66.1,58.1,65.4,61.8,46.0,91,86,64,29.86,29.62,9,4,9,0.05
2012-2-25,58.5,52.2,40.7,46.0,33.2,28.2,67,49,32,30.25,29.86,6,2,6,0.00
2012-2-26,55.6,48.3,38.9,46.6,37.8,30.3,76,67,55,30.42,30.24,9,2,9,0.00
2012-2-27,65.2,61.3,54.0,61.6,57.2,46.6,91,87,76,30.34,30.24,5,1,5,0.04
2012-2-28,67.3,60.1,55.1,58.2,53.4,48.0,92,80,52,30.31,30.21,10,2,10,0.00
2012-2-29,74.0,65.7,58.0,68.2,61.3,54.1,93,86,77,30.23,29.93,9,2,9,0.00
2012-3-1,69.3,64.6,63.0,64.7,61.6,60.1,93,90,84,29.95,29.81,7,2,7,0.07
2012-3-2,75.2,66.1,63.2,70.5,62.7,60.1,93,89,79,29.92,29.78,6,2,6,0.00
2012-3-3,67.5,62.0,58.0,64.3,59.4,56.0,94,91,87,29.78,29.63,9,1,9,1.76
2012-3-4,58.0,51.6,42.1,56.0,43.2,30.5,95,76,41,30.09,29.54,9,2,9,1.32
2012-3-5,68.2,55.6,40.5,45.0,36.6,27.6,85,52,29,30.40,30.05,8,2,10,0.00
2012-3-6,58.3,51.5,42.8,45.1,37.5,26.7,79,59,43,30.57,30.39,10,3,10,0.00
2012-3-7,70.0,59.7,50.2,58.6,52.6,43.9,86,78,65,30.51,30.34,8,2,8,0.00
2012-3-8,74.9,64.6,56.0,65.5,59.1,51.5,90,83,68,30.35,30.11,4,1,4,0.03
2012-3-9,74.9,66.5,58.7,66.1,61.0,50.0,92,83,66,30.18,30.03,5,1,5,0.04
2012-3-10,65.2,56.4,50.2,51.1,46.6,41.4,84,70,42,30.37,30.18,10,3,10,0.00
2012-3-11,66.6,61.0,54.5,54.0,51.0,47.6,79,70,62,30.44,30.35,9,4,9,0.00
2012-3-12,73.3,68.3,59.4,59.1,56.9,52.9,80,67,58,30.32,30.22,5,1,5,0.00
2012-3-13,75.4,64.0,57.1,63.5,57.1,52.6,90,79,60,30.24,30.12,6,1,6,0.01
2012-3-14,81.9,67.9,58.7,70.2,60.8,54.6,92,79,63,30.19,30.11,5,1,5,0.00
2012-3-15,82.4,69.0,56.7,70.1,61.7,52.8,93,78,62,30.24,30.14,4,0,4,0.00
2012-3-16,79.9,70.4,62.3,69.0,63.1,58.4,91,78,64,30.20,30.08,6,1,6,0.00
2012-3-17,81.0,70.5,61.4,68.8,62.0,56.5,88,75,57,30.18,30.08,4,1,4,0.00
2012-3-18,75.8,65.3,60.8,65.9,60.0,56.3,90,83,72,30.23,30.13,2,0,2,0.11
2012-3-19,82.4,68.2,58.0,72.5,62.1,54.7,94,81,65,30.16,30.06,5,0,5,0.00
2012-3-20,80.3,69.4,59.0,68.6,62.8,55.8,94,80,66,30.16,30.05,8,1,8,0.00
2012-3-21,81.4,69.6,61.9,70.5,64.0,58.9,93,83,65,30.20,30.11,6,0,6,0.03
2012-3-22,78.3,70.0,62.8,71.3,64.6,59.8,94,83,71,30.19,30.09,0,0,0,0.00
2012-3-23,85.5,72.8,62.1,74.6,65.8,58.4,93,79,64,30.09,29.93,0,0,0,0.00
2012-3-24,80.1,69.4,64.6,72.9,65.1,60.7,92,86,72,29.97,29.72,0,0,0,0.41
2012-3-25,71.8,63.0,57.4,64.5,56.3,52.4,91,79,59,29.76,29.63,0,0,0,0.08
2012-3-26,79.9,64.3,56.5,63.4,56.6,51.7,87,77,47,29.94,29.73,0,0,0,0.00
2012-3-27,67.7,62.4,58.9,58.4,51.0,43.1,86,67,41,30.22,29.94,0,0,0,0.00
2012-3-28,79.0,69.0,60.8,66.5,60.8,52.3,88,75,63,30.21,29.95,0,0,0,0.01
2012-3-29,86.4,73.5,64.4,65.8,62.7,59.1,88,71,41,29.96,29.80,0,0,0,0.00
2012-3-30,87.1,72.7,62.6,70.0,62.7,57.3,84,72,51,29.95,29.84,0,0,0,0.00
2012-3-31,72.0,69.8,66.6,66.3,65.1,62.9,89,85,82,29.88,29.74,0,0,0,0.04
2012-4-1,74.9,68.0,60.5,66.4,62.4,57.2,91,83,71,29.82,29.69,0,0,0,0.00
2012-4-2,89.8,75.6,66.6,69.9,65.7,62.6,90,74,43,29.85,29.66,0,0,0,0.07
2012-4-3,75.1,71.7,68.4,68.3,65.2,63.0,86,80,71,29.93,29.83,0,0,0,0.00
2012-4-4,82.6,73.1,64.8,71.0,66.3,60.7,90,80,64,29.85,29.62,0,0,0,0.02
2012-4-5,86.4,73.0,66.6,73.4,65.6,61.8,88,78,61,29.67,29.56,0,0,0,0.00
2012-4-6,66.6,55.9,49.7,63.8,51.1,45.0,91,84,68,30.01,29.61,0,0,0,0.00
2012-4-7,69.8,57.4,46.4,49.1,44.8,35.3,90,66,33,30.19,30.00,0,0,0,0.01
2012-4-8,77.8,64.1,52.0,59.4,53.5,46.3,85,69,48,30.14,29.96,0,0,0,0.00
2012-4-9,77.0,67.7,59.9,60.7,54.4,47.0,79,64,37,30.03,29.89,0,0,0,0.00
2012-4-10,78.1,68.5,58.3,60.9,54.8,47.4,82,63,37,29.98,29.83,0,0,0,0.00
2012-4-11,70.9,65.3,57.6,55.9,46.6,35.7,72,53,30,29.94,29.82,0,0,0,0.00
2012-4-12,65.2,59.0,48.6,43.7,39.2,31.7,69,49,33,30.16,30.07,0,0,0,0.00
2012-4-13,72.5,58.5,45.2,49.6,44.5,39.6,88,62,41,30.21,30.08,0,0,0,0.00
2012-4-14,75.8,65.6,52.6,63.6,55.9,45.0,81,71,63,30.26,30.17,0,0,0,0.00
2012-4-15,77.8,71.7,67.3,64.4,61.9,60.4,84,72,57,30.22,30.14,0,0,0,0.00
2012-4-16,83.3,73.3,68.0,65.4,62.6,59.0,83,70,45,30.19,30.10,0,0,0,0.00
2012-4-17,84.2,71.0,65.9,70.7,64.5,61.2,89,80,59,30.14,30.02,0,0,0,0.00
2012-4-18,79.2,72.6,65.2,68.8,65.5,60.6,90,79,67,30.05,29.91,0,0,0,0.00
2012-4-19,73.1,67.9,65.2,67.6,64.1,61.8,92,88,80,29.98,29.88,0,0,0,0.14
2012-4-20,76.0,68.6,63.2,68.0,63.9,60.3,91,85,72,29.92,29.78,0,0,0,0.00
2012-4-21,77.4,71.6,65.0,72.0,67.0,61.4,93,86,77,29.80,29.59,0,0,0,0.00
2012-4-22,70.7,66.2,56.9,66.6,63.6,54.3,93,91,86,29.60,29.34,0,0,0,0.75
2012-4-23,61.0,55.6,49.1,54.3,46.9,42.8,91,74,53,29.74,29.52,0,0,0,0.00
2012-4-24,67.7,54.1,45.0,44.5,41.0,37.2,75,63,39,29.83,29.73,0,0,0,0.00
2012-4-25,77.2,65.2,52.0,62.8,53.3,42.8,79,66,48,29.94,29.83,0,0,0,0.56
2012-4-26,78.5,71.7,65.3,66.1,62.4,57.0,81,73,62,29.93,29.83,0,0,0,0.00
2012-4-27,81.5,73.7,67.0,68.4,64.7,60.3,82,74,59,30.00,29.88,0,0,0,0.00
2012-4-28,86.6,75.9,70.0,72.7,67.8,65.6,87,77,59,30.04,29.96,0,0,0,0.00
2012-4-29,85.0,75.0,66.1,74.3,68.2,62.0,91,80,68,30.09,30.02,0,0,0,0.00
2012-4-30,83.5,74.8,67.1,73.7,69.0,63.3,91,83,70,30.16,30.06,0,0,0,0.00
2012-5-1,85.0,76.3,69.5,72.5,69.0,65.4,90,79,63,30.14,30.04,0,0,0,0.00
2012-5-2,84.2,76.6,70.0,73.2,69.1,65.1,88,78,66,30.12,30.01,0,0,0,0.00
2012-5-3,85.3,75.8,67.0,73.4,68.3,63.3,91,78,63,30.10,30.02,0,0,0,0.00
2012-5-4,81.4,75.1,68.8,72.7,69.3,64.1,91,82,74,30.06,29.91,0,0,0,0.00
2012-5-5,92.0,80.3,73.8,74.5,71.6,68.1,89,76,51,29.93,29.74,0,0,0,0.00
2012-5-6,82.8,76.6,70.9,70.7,68.6,65.2,85,77,65,29.91,29.76,0,0,0,0.00
2012-5-7,78.3,74.2,71.6,69.8,67.9,66.1,84,81,74,29.95,29.86,0,0,0,0.00
2012-5-8,82.4,76.1,70.9,70.1,67.5,65.2,84,75,63,29.91,29.81,0,0,0,0.00
2012-5-9,82.3,73.5,67.3,74.3,68.5,64.9,92,85,74,29.83,29.61,0,0,0,1.04
2012-5-10,76.1,68.8,61.4,64.9,60.4,56.2,93,76,52,29.88,29.65,0,0,0,0.00
2012-5-11,76.0,69.4,61.7,64.4,60.3,57.5,90,74,58,30.15,29.88,0,0,0,0.00
2012-5-12,79.2,72.9,67.7,66.4,60.7,54.2,81,66,47,30.26,30.13,0,0,0,0.00
2012-5-13,74.5,71.9,68.6,67.5,65.7,62.9,90,81,75,30.17,30.03,0,0,0,0.15
2012-5-14,82.8,75.8,70.7,73.9,68.8,62.9,85,79,68,30.04,29.88,0,0,0,0.00
2012-5-15,83.7,77.3,73.4,74.0,71.1,68.0,89,82,70,29.94,29.84,0,0,0,0.00
2012-5-16,76.7,75.3,74.0,72.9,71.6,70.4,90,88,85,29.91,29.85,0,0,0,0.01
2012-5-17,76.1,69.5,63.7,73.5,66.6,61.1,95,90,83,29.89,29.80,0,0,0,5.91
2012-5-18,73.4,68.3,65.7,68.3,63.5,56.8,93,85,72,29.95,29.83,0,0,0,0.00
2012-5-19,71.3,67.0,61.2,57.0,52.6,47.9,73,61,45,30.00,29.91,0,0,0,0.03
2012-5-20,76.7,68.2,58.7,67.2,60.5,53.7,86,77,65,29.98,29.88,0,0,0,0.22
2012-5-21,80.6,74.1,67.9,71.8,67.8,64.4,90,81,68,29.93,29.82,0,0,0,0.00
2012-5-22,83.0,75.7,68.6,74.4,69.5,65.1,91,81,70,29.86,29.74,0,0,0,0.00
2012-5-23,83.7,76.1,66.8,73.3,69.5,62.1,89,80,68,29.86,29.75,0,0,0,0.01
2012-5-24,88.2,78.5,71.6,78.6,72.7,68.0,92,83,72,29.93,29.84,0,0,0,0.00
2012-5-25,86.2,77.9,72.9,75.3,71.9,69.6,92,82,67,30.00,29.90,0,0,0,0.00
2012-5-26,87.1,78.8,72.0,73.4,70.1,68.2,90,76,56,30.01,29.91,0,0,0,0.00
2012-5-27,85.0,78.8,73.8,76.1,72.5,68.2,87,81,74,29.94,29.87,0,0,0,0.00
2012-5-28,84.1,79.5,75.2,77.1,74.0,70.5,88,84,78,29.95,29.88,0,0,0,0.05
2012-5-29,84.1,78.0,73.1,76.8,73.2,69.8,93,85,77,29.91,29.64,0,0,0,1.37
2012-5-30,86.2,77.0,69.1,75.4,71.6,67.3,94,84,68,29.80,29.47,0,0,0,0.18
2012-5-31,90.2,78.2,67.3,78.9,71.5,63.9,92,80,67,29.83,29.77,0,0,0,0.01
2012-6-1,84.8,79.1,73.8,76.7,73.2,69.4,90,82,74,29.83,29.71,0,0,0,0.05
2012-6-2,84.4,77.6,68.8,73.4,66.7,58.1,90,71,46,29.85,29.70,0,0,0,0.00
2012-6-3,86.2,75.0,61.9,69.0,60.9,53.8,78,63,43,29.92,29.82,0,0,0,0.00
2012-6-4,78.8,76.0,71.3,72.5,70.3,67.2,91,83,76,29.82,29.65,0,0,0,0.25
2012-6-5,76.1,71.7,68.8,68.9,66.0,63.5,88,82,71,29.80,29.62,0,0,0,0.04
2012-6-6,72.2,69.9,67.9,67.8,66.4,64.4,94,89,82,29.90,29.73,0,0,0,2.04
2012-6-7,79.6,72.5,65.2,68.8,64.9,61.8,91,78,63,29.98,29.88,0,0,0,0.00
2012-6-8,84.6,76.0,70.0,68.8,65.5,63.7,82,70,58,29.99,29.91,0,0,0,0.00
2012-6-9,85.0,75.6,65.7,73.9,67.3,61.8,91,76,63,30.04,29.95,0,0,0,0.00
2012-6-10,83.9,78.5,76.1,75.8,71.9,67.6,89,80,74,30.09,29.96,0,0,0,0.08
2012-6-11,81.9,74.9,69.5,77.3,71.5,66.6,94,89,82,30.13,30.00,0,0,0,1.71
2012-6-12,79.9,75.7,71.1,75.7,72.7,68.9,94,90,84,30.00,29.82,0,0,0,0.02
2012-6-13,83.5,76.6,71.1,76.8,72.3,67.7,92,87,75,29.88,29.81,0,0,0,0.09
2012-6-14,85.7,76.3,69.8,72.6,68.9,67.1,92,79,63,30.01,29.86,0,0,0,0.00
2012-6-15,83.7,75.4,68.2,69.8,66.0,61.5,81,73,49,30.07,29.98,0,0,0,0.00
2012-6-16,84.2,75.0,67.7,68.1,65.0,60.6,80,71,53,30.13,30.03,0,0,0,0.00
2012-6-17,76.0,72.4,68.9,66.7,65.1,63.1,84,78,68,30.08,29.97,0,0,0,0.00
2012-6-18,86.4,75.5,64.6,72.2,66.2,60.4,90,74,57,30.05,29.96,0,0,0,0.00
2012-6-19,88.6,79.1,69.1,74.5,70.1,64.7,89,75,59,30.11,30.03,0,0,0,0.00
2012-6-20,88.2,79.1,70.2,75.5,70.5,66.0,89,76,61,30.11,30.02,0,0,0,0.00
2012-6-21,90.7,79.0,69.5,75.6,69.7,65.4,90,74,58,30.03,29.89,0,0,0,0.00
2012-6-22,89.8,78.8,68.4,76.4,69.9,64.0,88,75,58,29.91,29.83,0,0,0,0.00
2012-6-23,94.5,82.9,73.4,81.2,75.1,69.4,89,78,62,29.94,29.83,0,0,0,0.00
2012-6-24,90.9,82.3,75.1,80.5,75.4,71.2,89,80,70,29.94,29.84,0,0,0,0.00
2012-6-25,81.5,77.9,74.5,76.6,73.2,70.9,91,86,81,29.86,29.62,0,0,0,0.24
2012-6-26,76.9,70.8,65.3,73.3,67.4,62.0,93,89,79,29.73,29.62,0,0,0,3.83
2012-6-27,84.4,74.2,66.1,66.2,62.7,58.8,79,68,49,29.92,29.70,0,0,0,0.00
2012-6-28,91.3,77.0,65.0,70.4,65.3,59.3,84,69,48,29.99,29.90,0,0,0,0.00
2012-6-29,96.7,84.3,77.4,79.9,72.8,67.3,76,69,58,29.90,29.73,0,0,0,0.00
2012-6-30,96.7,85.0,79.9,82.7,75.1,72.1,78,72,63,29.85,29.75,0,0,0,0.00
2012-7-1,96.3,84.9,78.3,80.2,72.6,64.3,75,67,59,30.01,29.82,0,0,0,0.00
2012-7-2,90.5,83.1,76.3,74.6,68.7,63.5,66,62,59,30.02,29.90,0,0,0,0.01
2012-7-3,94.7,85.3,78.8,77.6,71.3,67.3,69,63,58,29.96,29.87,0,0,0,0.00
2012-7-4,93.6,84.5,76.5,75.5,69.7,64.3,67,62,55,29.99,29.88,0,0,0,0.00
2012-7-5,94.5,85.3,79.9,76.1,69.8,66.6,65,60,55,29.93,29.83,0,0,0,0.00
2012-7-6,94.7,85.2,78.1,76.0,68.3,63.2,61,57,54,29.96,29.85,0,0,0,0.00
2012-7-7,96.8,86.1,79.4,77.4,68.1,63.0,59,55,52,29.99,29.91,0,0,0,0.00
2012-7-8,95.2,86.6,80.3,75.2,67.6,62.1,55,53,52,29.99,29.85,0,0,0,0.00
2012-7-9,97.4,87.0,82.1,77.4,67.5,63.2,54,53,51,29.92,29.82,0,0,0,0.00
2012-7-10,84.2,82.1,79.7,65.3,62.5,59.5,54,52,49,29.98,29.87,0,0,0,0.02
2012-7-11,94.0,81.9,77.4,71.9,60.8,57.4,51,49,46,30.00,29.92,0,0,0,0.02
2012-7-12,86.6,80.5,73.3,57.4,49.7,39.9,48,35,24,30.06,29.97,0,0,0,0.68
2012-7-13,90.2,82.6,77.6,39.9,24.2,16.7,24,6,1,30.09,30.00,0,0,0,0.28
2012-7-14,91.1,83.8,79.2,27.1,21.5,17.9,5,1,1,30.14,30.04,0,0,0,0.02
2012-7-15,88.6,82.1,75.8,25.2,20.2,15.4,5,1,1,30.12,30.02,0,0,0,0.01
2012-7-16,94.3,83.0,75.4,41.9,22.4,15.1,18,4,1,30.04,29.89,0,0,0,0.00
2012-7-17,91.1,83.1,77.4,26.9,20.9,16.7,5,1,1,29.94,29.86,0,0,0,0.04
2012-7-18,89.8,82.4,76.5,26.1,20.4,15.9,6,1,1,29.99,29.90,0,0,0,0.00
2012-7-19,90.4,84.2,79.6,30.9,21.8,18.2,13,1,1,30.04,29.94,0,0,0,0.01
2012-7-20,90.0,83.2,79.2,28.4,21.0,17.9,13,1,1,29.99,29.91,0,0,0,0.00
2012-7-21,90.0,84.0,77.9,53.1,22.5,17.0,29,3,1,30.06,29.95,0,0,0,0.00
2012-7-22,92.9,85.7,82.1,28.4,23.0,20.3,1,1,1,30.13,30.02,0,0,0,0.00
2012-7-23,94.1,85.3,77.8,29.3,22.6,16.9,10,2,1,30.14,30.03,0,0,0,0.00
2012-7-24,94.1,85.2,75.6,62.5,25.0,15.2,36,4,1,30.03,29.84,0,0,0,0.10
2012-7-25,91.3,82.3,73.8,27.2,20.4,14.0,1,1,1,29.91,29.82,0,0,0,0.04
2012-7-26,95.8,85.4,81.2,30.6,22.7,19.5,1,1,1,29.88,29.82,0,0,0,0.00
2012-7-27,95.8,86.1,80.6,30.4,23.3,19.1,8,1,1,29.91,29.82,0,0,0,0.00
2012-7-28,92.5,84.4,78.5,28.1,22.0,17.4,1,1,1,29.96,29.86,0,0,0,0.12
2012-7-29,95.0,84.1,78.5,30.1,21.7,17.4,1,1,1,29.93,29.83,0,0,0,0.00
2012-7-30,83.0,79.1,74.2,20.9,17.9,14.2,1,1,1,29.92,29.79,0,0,0,0.18
2012-7-31,88.7,79.0,70.7,25.3,17.9,11.5,1,1,1,29.91,29.83,0,0,0,0.09
2012-8-1,87.8,79.1,75.4,24.7,17.9,15.1,1,1,1,29.88,29.77,0,0,0,1.87
2012-8-2,89.6,80.3,75.4,25.9,18.9,15.1,1,1,1,29.90,29.80,0,0,0,0.02
2012-8-3,89.6,81.5,73.8,25.9,19.8,14.0,1,1,1,30.00,29.89,0,0,0,0.00
2012-8-4,90.0,82.9,78.5,26.2,20.8,17.4,1,1,1,30.11,29.97,0,0,0,0.00
2012-8-5,92.5,81.6,76.0,28.1,19.9,15.5,1,1,1,30.13,30.03,0,0,0,1.91
2012-8-6,87.8,81.2,76.0,24.7,19.5,15.5,1,1,1,30.08,29.96,0,0,0,0.00
2012-8-7,85.7,81.1,76.3,23.0,19.4,15.9,1,1,1,29.99,29.91,0,0,0,0.15
2012-8-8,81.7,77.4,74.5,20.0,16.6,14.4,1,1,1,29.97,29.88,0,0,0,0.42
2012-8-9,89.6,80.4,73.8,25.9,18.9,14.0,1,1,1,29.93,29.82,0,0,0,0.15
2012-8-10,85.5,79.7,74.5,22.8,18.4,14.4,1,1,1,29.89,29.80,0,0,0,0.87
2012-8-11,88.9,78.9,73.4,25.4,17.8,13.7,1,1,1,29.91,29.82,0,0,0,0.32
2012-8-12,87.3,81.4,76.5,24.2,19.7,15.9,1,1,1,29.94,29.86,0,0,0,0.00
2012-8-13,89.6,82.8,76.1,62.5,25.2,15.7,41,6,1,29.98,29.89,0,0,0,0.00
2012-8-14,91.6,83.6,76.3,64.2,27.9,15.9,42,9,1,29.94,29.84,0,0,0,0.00
2012-8-15,92.2,84.3,78.5,35.8,22.0,17.4,15,2,1,29.92,29.84,0,0,0,0.00
2012-8-16,90.0,81.4,76.1,26.2,19.6,15.7,1,1,1,29.96,29.87,0,0,0,0.00
2012-8-17,91.1,80.3,72.9,27.1,18.8,13.2,10,1,1,29.94,29.79,0,0,0,0.00
2012-8-18,89.1,82.3,76.0,25.6,20.4,15.5,1,1,1,29.84,29.75,0,0,0,0.00
2012-8-19,87.3,80.7,75.4,24.2,19.1,15.1,1,1,1,29.85,29.78,0,0,0,0.26
2012-8-20,85.0,78.5,74.7,22.3,17.5,14.6,1,1,1,29.91,29.78,0,0,0,0.53
2012-8-21,80.1,76.1,72.9,18.6,15.7,13.2,1,1,1,29.96,29.86,0,0,0,0.30
2012-8-22,84.2,77.4,72.7,21.8,16.6,13.2,1,1,1,30.00,29.93,0,0,0,0.13
2012-8-23,79.9,75.4,72.7,18.6,15.1,13.2,1,1,1,30.04,29.96,0,0,0,0.06
2012-8-24,80.5,74.7,71.3,18.9,14.5,12.0,1,1,1,30.02,29.95,0,0,0,0.39
2012-8-25,85.1,75.6,67.7,58.7,21.7,9.3,43,8,1,30.06,29.99,0,0,0,0.00
2012-8-26,86.4,77.3,69.7,23.5,16.6,10.7,10,1,1,30.08,29.97,0,0,0,0.00
2012-8-27,85.7,80.3,77.6,23.0,18.8,16.7,1,1,1,30.01,29.93,0,0,0,0.04
2012-8-28,79.2,76.6,73.6,17.9,16.0,13.8,1,1,1,29.98,29.88,0,0,0,3.82
2012-8-29,83.0,77.3,71.6,20.9,16.6,12.2,1,1,1,30.01,29.86,0,0,0,0.61
2012-8-30,78.5,75.1,71.5,17.4,14.9,12.1,1,1,1,30.09,29.88,0,0,0,0.30
2012-8-31,85.9,79.0,73.1,23.0,17.8,13.4,1,1,1,30.17,30.06,0,0,0,0.00
2012-9-1,89.3,81.6,75.2,25.7,19.9,14.9,1,1,1,30.10,29.98,0,0,0,0.00
2012-9-2,92.2,83.3,78.1,27.9,21.1,17.1,1,1,1,30.01,29.89,0,0,0,0.00
2012-9-3,88.6,82.1,78.8,25.2,20.2,17.6,1,1,1,29.99,29.91,0,0,0,0.00
2012-9-4,87.8,82.1,78.1,24.7,20.2,17.1,1,1,1,29.95,29.87,0,0,0,0.00
2012-9-5,81.2,80.0,78.5,19.5,18.6,17.4,1,1,1,29.90,29.87,0,0,0,0.00
2012-9-6,90.0,84.0,77.4,26.2,21.6,16.7,1,1,1,29.93,29.83,0,0,0,0.00
2012-9-7,89.5,80.9,73.4,25.8,19.3,13.7,1,1,1,29.90,29.80,0,0,0,0.00
2012-9-8,88.2,81.2,77.2,24.9,19.5,16.5,1,1,1,29.80,29.70,0,0,0,0.31
2012-9-9,82.6,77.7,72.0,20.6,16.8,12.5,1,1,1,29.90,29.70,0,0,0,0.02
2012-9-10,84.4,73.6,64.6,62.4,28.1,6.9,50,18,1,30.06,29.89,0,0,0,0.00
2012-9-11,85.0,73.9,63.9,62.1,36.7,6.3,51,28,1,30.19,30.05,0,0,0,0.00
2012-9-12,84.2,75.1,68.6,63.1,35.8,9.9,50,26,1,30.23,30.15,0,0,0,0.00
2012-9-13,79.2,76.8,75.2,17.9,16.1,14.9,1,1,1,30.13,30.11,0,0,0,0.00
2012-9-14,85.3,77.0,70.2,22.7,16.3,11.1,10,1,1,30.12,30.04,0,0,0,0.00
2012-9-15,86.4,76.5,68.0,48.6,16.4,9.5,28,2,1,30.09,30.01,0,0,0,0.00
2012-9-16,85.7,77.6,69.8,36.0,17.1,10.8,18,2,1,30.05,29.96,0,0,0,0.00
2012-9-17,87.5,78.2,69.7,24.4,17.2,10.7,1,1,1,30.00,29.87,0,0,0,0.00
2012-9-18,83.3,79.8,77.0,21.2,18.4,16.4,1,1,1,29.88,29.68,0,0,0,0.07
2012-9-19,83.5,75.9,70.0,21.2,15.5,11.0,1,1,1,30.01,29.77,0,0,0,0.00
2012-9-20,78.7,72.1,67.1,17.6,12.6,8.8,1,1,1,30.04,29.96,0,0,0,0.00
2012-9-21,82.8,73.8,65.9,47.6,18.3,7.8,31,6,1,30.01,29.94,0,0,0,0.00
2012-9-22,85.1,75.6,68.0,22.5,15.2,9.5,1,1,1,29.99,29.90,0,0,0,0.00
2012-9-23,81.9,75.2,65.5,20.1,14.9,7.4,3,1,1,30.02,29.91,0,0,0,0.00
2012-9-24,80.3,69.7,60.3,55.0,21.9,3.5,45,14,1,30.10,29.99,0,0,0,0.00
2012-9-25,81.9,69.8,59.8,52.2,16.4,3.1,37,7,1,30.15,30.07,0,0,0,0.00
2012-9-26,84.2,73.9,64.8,21.8,14.0,6.9,1,1,1,30.14,30.07,0,0,0,0.00
2012-9-30,77.4,76.4,76.0,72.2,70.3,67.8,85,81,73,30.11,29.86,4,2,4,0.00
2012-10-1,86.8,80.6,75.2,78.8,75.2,71.2,91,84,76,29.87,29.79,5,1,5,0.12
2012-10-2,85.3,81.4,78.8,78.1,76.0,73.6,89,84,77,30.02,29.78,6,2,6,0.01
2012-10-3,83.2,79.6,76.1,76.2,72.1,69.8,89,78,66,30.22,30.01,4,1,4,0.02
2012-10-4,83.3,77.1,71.3,75.6,71.0,67.2,92,81,75,30.26,30.18,4,0,4,0.01
2012-10-5,82.4,76.4,71.8,70.9,68.4,65.3,88,77,58,30.20,30.05,7,1,7,0.00
2012-10-6,84.8,76.5,69.3,72.1,68.8,64.9,90,78,65,30.05,29.92,4,1,4,0.00
2012-10-7,86.2,78.2,71.6,75.9,71.6,67.1,91,80,70,30.03,29.95,4,1,4,0.00
2012-10-8,78.1,65.5,55.6,71.8,60.2,52.7,91,83,76,30.11,30.01,7,2,7,0.69
2012-10-9,65.2,58.2,54.5,58.2,54.1,51.8,92,86,75,30.15,30.07,6,1,6,0.00
2012-10-10,74.5,62.1,50.9,63.5,55.9,47.8,93,81,65,30.16,30.03,4,1,4,0.00
2012-10-11,72.2,64.7,58.3,57.3,55.6,52.6,88,73,54,30.29,30.14,9,2,9,0.00
2012-10-12,77.0,66.2,55.8,62.8,57.6,51.3,92,75,60,30.27,30.16,4,0,4,0.00
2012-10-13,75.2,68.6,63.2,64.4,58.9,56.1,81,72,60,30.36,30.24,13,3,13,0.00
2012-10-14,80.8,71.9,62.6,68.9,62.7,57.5,88,74,55,30.30,30.07,8,2,8,0.00
2012-10-15,80.5,74.1,68.2,70.9,67.6,63.4,90,80,70,30.07,29.79,6,1,6,0.18
2012-10-16,71.1,64.1,58.0,63.7,53.0,47.8,85,68,49,29.98,29.86,8,1,8,0.00
2012-10-17,72.4,63.9,56.3,61.7,56.7,50.9,87,78,66,30.02,29.92,6,1,6,0.00
2012-10-18,77.6,70.6,62.6,70.4,65.6,58.1,92,84,77,29.92,29.82,4,0,4,0.04
2012-10-19,76.9,71.8,61.4,71.1,59.8,51.8,88,68,42,29.87,29.76,4,1,4,0.00
2012-10-20,75.6,64.9,56.0,55.4,51.3,46.4,81,63,41,29.97,29.83,4,1,4,0.00
2012-10-21,72.0,62.6,55.6,54.9,50.8,46.3,78,66,50,30.17,29.95,9,2,9,0.00
2012-10-22,73.1,61.6,50.6,55.4,50.0,45.7,86,68,40,30.24,30.15,8,1,8,0.00
2012-10-23,77.0,65.5,54.4,63.4,56.8,48.0,89,74,56,30.21,30.13,8,1,8,0.00
2012-10-24,80.3,70.7,62.5,68.1,63.3,57.3,91,78,59,30.19,30.10,8,2,8,0.00
2012-10-25,80.6,74.4,70.7,70.0,67.5,65.8,86,79,68,30.11,30.03,12,4,12,0.00
2012-10-26,78.8,72.4,68.0,67.4,64.8,62.5,88,78,63,30.03,29.77,11,2,11,0.00
2012-10-27,70.0,66.5,64.6,63.8,62.1,58.0,91,86,78,29.77,29.54,8,2,8,0.41
2012-10-28,71.1,65.0,61.7,58.3,55.9,53.9,78,73,62,29.64,29.56,6,2,6,0.00
2012-10-29,63.2,57.3,49.7,54.5,43.3,37.3,74,60,47,29.68,29.54,7,2,7,0.00
2012-10-30,58.5,51.9,46.4,39.4,35.8,31.4,62,54,44,29.77,29.57,5,1,5,0.00
2012-10-31,65.2,54.4,46.3,40.1,34.1,30.3,58,47,32,29.86,29.75,5,1,5,0.00
2012-11-1,64.3,54.5,47.5,39.2,35.8,32.4,65,51,31,29.96,29.82,7,1,7,0.00
2012-11-2,72.7,57.9,43.6,53.0,39.8,28.3,71,51,39,30.02,29.88,7,1,7,0.00
2012-11-3,68.6,61.6,51.8,49.3,45.4,35.7,77,57,34,30.13,29.95,8,1,8,0.00
2012-11-4,79.0,67.3,55.8,66.2,60.1,48.3,87,78,62,30.06,29.91,6,1,6,0.28
2012-11-5,64.6,57.9,51.5,58.4,50.5,45.5,88,77,51,30.06,29.92,7,1,7,0.00
2012-11-6,55.6,51.5,45.7,47.5,44.7,39.0,87,78,72,30.03,29.88,8,1,8,0.06
2012-11-7,54.4,47.0,41.9,43.8,39.9,36.4,83,76,65,29.99,29.85,4,1,4,0.00
2012-11-8,62.3,49.5,41.0,46.6,40.4,37.2,88,72,47,30.16,29.98,5,1,5,0.00
2012-11-9,66.6,52.3,41.4,45.8,39.7,34.2,79,63,38,30.31,30.15,4,1,4,0.00
2012-11-10,70.2,54.6,43.6,52.7,44.6,38.1,90,71,46,30.40,30.29,4,0,4,0.00
2012-11-11,73.8,62.2,50.0,63.9,56.1,44.1,88,81,70,30.45,30.36,9,2,9,0.00
2012-11-12,80.5,68.6,60.3,68.4,61.7,56.3,92,79,65,30.37,30.22,5,0,5,0.00
2012-11-13,76.9,64.6,53.5,67.0,59.5,50.5,91,84,67,30.29,30.15,7,1,7,0.74
2012-11-14,53.5,50.4,47.9,50.9,46.1,43.9,91,85,81,30.38,30.25,9,2,9,0.01
2012-11-15,51.1,48.6,45.2,49.2,46.0,42.3,94,91,86,30.26,30.17,7,2,7,0.50
2012-11-16,52.6,49.6,46.4,49.5,46.9,44.4,93,90,82,30.30,30.21,7,1,7,0.00
2012-11-17,54.4,50.7,44.6,48.3,44.9,39.5,85,80,77,30.36,30.28,8,2,8,0.00
2012-11-18,54.2,51.6,49.1,50.6,48.5,46.1,93,89,78,30.30,30.15,8,2,8,0.82
2012-11-19,58.3,54.8,52.2,54.5,51.7,49.9,93,89,85,30.21,30.11,7,2,7,0.06
2012-11-20,60.1,53.7,49.0,54.6,49.5,45.3,90,86,79,30.16,30.04,5,1,5,0.04
2012-11-21,61.6,52.9,45.9,51.0,46.1,42.1,93,78,60,30.13,30.05,6,1,6,0.00
2012-11-22,62.5,51.7,42.7,42.5,39.0,35.1,77,63,41,30.21,30.11,6,1,6,0.00
2012-11-23,67.9,52.0,38.9,49.3,42.5,33.6,86,71,49,30.20,29.96,5,1,5,0.00
2012-11-24,61.6,53.4,42.1,48.0,41.5,34.9,78,65,47,30.11,29.95,5,1,5,0.00
2012-11-25,58.0,47.8,39.8,45.0,37.8,29.6,81,68,59,30.21,30.10,6,1,6,0.00
2012-11-26,66.6,49.9,38.2,47.4,39.6,33.8,90,70,40,30.28,30.15,3,0,3,0.00
2012-11-27,62.8,53.1,44.6,53.8,47.5,38.3,87,81,70,30.22,30.10,2,0,2,0.10
2012-11-28,59.0,51.5,40.7,49.7,45.4,35.6,89,80,63,30.41,30.16,5,1,5,0.00
2012-11-29,61.7,49.1,37.3,48.3,41.5,33.3,88,76,57,30.47,30.38,8,1,8,0.00
2012-11-30,66.1,55.5,45.9,55.7,48.0,41.1,90,76,60,30.41,30.31,6,1,6,0.00
2012-12-1,65.9,60.4,53.1,59.7,54.0,48.3,87,80,68,30.39,30.31,7,2,7,0.00
2012-12-2,70.6,63.5,57.4,62.4,57.6,52.9,88,81,73,30.39,30.29,6,1,6,0.00
2012-12-3,74.5,62.3,53.3,66.2,57.0,49.8,93,83,73,30.34,30.27,4,0,4,0.00
2012-12-4,74.0,64.5,58.5,64.5,59.2,54.0,90,83,69,30.36,30.26,4,0,4,0.00
2012-12-5,74.2,61.7,52.2,61.9,55.0,48.7,92,79,63,30.26,30.11,3,0,3,0.00
2012-12-6,61.4,57.9,54.0,55.4,52.2,47.0,87,81,76,30.20,30.12,11,3,13,0.00
2012-12-7,56.5,54.2,53.5,52.1,49.2,46.6,88,83,77,30.12,30.02,5,1,5,0.00
2012-12-8,68.4,58.4,51.8,60.2,53.8,48.5,92,85,74,30.11,30.01,3,0,3,0.00
2012-12-9,76.1,64.3,53.1,69.8,59.4,49.6,94,84,75,30.15,29.99,5,1,5,0.00
2012-12-10,68.4,65.1,62.8,66.0,61.5,59.3,92,88,84,29.99,29.81,6,1,6,0.00
2012-12-11,71.5,66.3,62.1,66.3,62.5,57.5,93,88,82,30.08,29.81,5,1,5,0.00
2012-12-12,62.1,55.4,47.2,57.9,52.3,45.0,93,89,85,30.20,30.06,8,1,8,0.79
2012-12-13,48.4,45.5,43.0,46.0,43.1,40.8,93,91,87,30.32,30.14,7,2,7,0.05
2012-12-14,58.7,50.1,43.4,49.7,45.1,40.1,90,83,71,30.37,30.21,6,1,6,0.00
2012-12-15,60.8,55.3,50.8,56.3,50.3,43.8,89,83,76,30.24,30.10,4,1,4,0.00
2012-12-16,71.1,62.4,54.4,66.2,58.7,51.3,94,88,81,30.12,29.90,3,0,3,0.00
2012-12-17,69.3,64.2,59.8,64.2,60.8,57.4,93,89,81,29.92,29.71,9,1,9,0.69
2012-12-18,64.8,59.2,46.8,59.9,51.4,38.8,93,77,48,30.01,29.77,6,1,6,0.00
2012-12-19,68.6,53.6,42.7,48.3,42.5,36.1,81,67,42,30.13,30.01,3,0,3,0.07
2012-12-20,70.9,58.7,43.6,63.2,53.1,39.3,92,82,70,30.13,29.68,8,1,8,0.43
2012-12-21,58.3,47.6,43.2,52.8,33.7,24.9,82,59,46,29.99,29.74,7,3,10,0.00
2012-12-22,55.6,44.2,36.5,30.9,26.5,21.5,66,50,37,30.19,29.98,6,1,6,0.00
2012-12-23,58.7,46.5,35.1,44.2,33.8,25.2,72,62,42,30.23,30.11,4,1,4,0.00
2012-12-24,61.0,54.0,46.1,52.4,45.7,38.6,86,74,55,30.14,29.96,7,1,7,0.10
2012-12-25,59.6,56.4,53.3,54.9,52.4,48.6,92,87,82,30.10,29.93,6,1,6,0.30
2012-12-26,65.3,57.7,43.0,63.3,52.7,34.0,93,83,67,29.93,29.55,9,3,9,0.39
2012-12-27,53.8,44.5,37.4,42.9,36.6,31.2,82,74,64,30.08,29.83,5,1,5,0.00
2012-12-28,56.5,47.0,35.8,49.0,41.9,32.1,91,83,74,30.16,29.92,6,1,6,0.00
2012-12-29,64.4,52.7,42.7,62.7,47.9,33.8,94,84,69,30.08,29.68,10,2,10,1.12
2012-12-30,50.8,41.4,33.3,35.3,31.3,27.0,78,68,49,30.44,30.07,5,1,5,0.00
2012-12-31,59.2,44.1,30.2,46.1,36.4,25.6,88,75,55,30.45,30.21,4,0,4,0.00
2013-1-1,63.4,55.6,48.4,57.3,50.8,44.0,90,84,78,30.21,29.97,4,1,4,0.00